sensor_id;sensor_type;location;lat;lon;timestamp;P1;durP1;ratioP1;P2;durP2;ratioP2
74291;SDS011;62687;55.738;37.516;2023-07-29T00:01:29;5.57;;;1.70;;
74291;SDS011;62687;55.738;37.516;2023-07-29T00:04:13;3.83;;;2.00;;
74291;SDS011;62687;55.738;37.516;2023-07-29T00:06:57;4.70;;;1.77;;
74291;SDS011;62687;55.738;37.516;2023-07-29T00:09:41;3.45;;;1.77;;
74291;SDS011;62687;55.738;37.516;2023-07-29T00:12:25;5.80;;;2.05;;
74291;SDS011;62687;55.738;37.516;2023-07-29T00:15:09;4.43;;;2.00;;
74291;SDS011;62687;55.738;37.516;2023-07-29T00:17:53;4.70;;;1.70;;
74291;SDS011;62687;55.738;37.516;2023-07-29T00:20:37;6.65;;;1.80;;
74291;SDS011;62687;55.738;37.516;2023-07-29T00:23:21;3.22;;;1.95;;
74291;SDS011;62687;55.738;37.516;2023-07-29T00:26:05;2.97;;;1.90;;
74291;SDS011;62687;55.738;37.516;2023-07-29T00:28:49;3.97;;;1.98;;
74291;SDS011;62687;55.738;37.516;2023-07-29T00:31:33;4.15;;;2.20;;
74291;SDS011;62687;55.738;37.516;2023-07-29T00:34:17;7.05;;;2.40;;
74291;SDS011;62687;55.738;37.516;2023-07-29T00:37:02;3.08;;;1.88;;
74291;SDS011;62687;55.738;37.516;2023-07-29T00:39:47;4.20;;;1.80;;
74291;SDS011;62687;55.738;37.516;2023-07-29T00:42:31;8.45;;;2.05;;
74291;SDS011;62687;55.738;37.516;2023-07-29T00:45:15;2.70;;;1.80;;
74291;SDS011;62687;55.738;37.516;2023-07-29T00:47:59;6.07;;;2.13;;
74291;SDS011;62687;55.738;37.516;2023-07-29T00:50:43;4.00;;;1.80;;
74291;SDS011;62687;55.738;37.516;2023-07-29T00:53:27;3.85;;;1.80;;
74291;SDS011;62687;55.738;37.516;2023-07-29T00:56:11;4.75;;;1.60;;
74291;SDS011;62687;55.738;37.516;2023-07-29T00:58:55;5.22;;;1.83;;
74291;SDS011;62687;55.738;37.516;2023-07-29T01:01:42;5.60;;;2.08;;
74291;SDS011;62687;55.738;37.516;2023-07-29T01:04:26;2.80;;;1.90;;
74291;SDS011;62687;55.738;37.516;2023-07-29T01:07:21;4.25;;;2.00;;
74291;SDS011;62687;55.738;37.516;2023-07-29T01:18:31;3.20;;;1.52;;
74291;SDS011;62687;55.738;37.516;2023-07-29T01:21:15;3.10;;;2.03;;
74291;SDS011;62687;55.738;37.516;2023-07-29T01:24:01;4.85;;;1.95;;
74291;SDS011;62687;55.738;37.516;2023-07-29T01:26:45;6.60;;;2.42;;
74291;SDS011;62687;55.738;37.516;2023-07-29T01:29:29;4.43;;;1.80;;
74291;SDS011;62687;55.738;37.516;2023-07-29T01:32:21;4.88;;;2.30;;
74291;SDS011;62687;55.738;37.516;2023-07-29T01:37:56;6.50;;;2.30;;
74291;SDS011;62687;55.738;37.516;2023-07-29T01:40:43;4.70;;;2.30;;
74291;SDS011;62687;55.738;37.516;2023-07-29T01:43:30;8.13;;;2.30;;
74291;SDS011;62687;55.738;37.516;2023-07-29T01:46:14;6.25;;;2.92;;
74291;SDS011;62687;55.738;37.516;2023-07-29T01:48:59;7.30;;;2.88;;
74291;SDS011;62687;55.738;37.516;2023-07-29T01:51:43;5.72;;;2.20;;
74291;SDS011;62687;55.738;37.516;2023-07-29T01:54:27;6.57;;;2.28;;
74291;SDS011;62687;55.738;37.516;2023-07-29T01:57:11;4.93;;;2.38;;
74291;SDS011;62687;55.738;37.516;2023-07-29T01:59:55;3.85;;;2.20;;
74291;SDS011;62687;55.738;37.516;2023-07-29T02:02:39;3.60;;;1.95;;
74291;SDS011;62687;55.738;37.516;2023-07-29T02:05:23;3.72;;;1.77;;
74291;SDS011;62687;55.738;37.516;2023-07-29T02:08:07;4.13;;;2.05;;
74291;SDS011;62687;55.738;37.516;2023-07-29T02:10:52;4.50;;;2.47;;
74291;SDS011;62687;55.738;37.516;2023-07-29T02:13:36;3.58;;;2.30;;
74291;SDS011;62687;55.738;37.516;2023-07-29T02:16:20;5.07;;;2.30;;
74291;SDS011;62687;55.738;37.516;2023-07-29T02:19:04;3.33;;;2.20;;
74291;SDS011;62687;55.738;37.516;2023-07-29T02:21:47;6.75;;;2.00;;
74291;SDS011;62687;55.738;37.516;2023-07-29T02:24:31;4.38;;;2.35;;
74291;SDS011;62687;55.738;37.516;2023-07-29T02:27:15;5.00;;;2.00;;
74291;SDS011;62687;55.738;37.516;2023-07-29T02:29:59;6.78;;;2.35;;
74291;SDS011;62687;55.738;37.516;2023-07-29T02:32:43;7.57;;;2.30;;
74291;SDS011;62687;55.738;37.516;2023-07-29T02:35:27;3.88;;;2.00;;
74291;SDS011;62687;55.738;37.516;2023-07-29T02:38:12;4.22;;;2.22;;
74291;SDS011;62687;55.738;37.516;2023-07-29T02:40:56;4.70;;;2.10;;
74291;SDS011;62687;55.738;37.516;2023-07-29T02:43:41;8.43;;;2.00;;
74291;SDS011;62687;55.738;37.516;2023-07-29T02:46:25;4.97;;;2.17;;
74291;SDS011;62687;55.738;37.516;2023-07-29T02:49:09;5.32;;;1.92;;
74291;SDS011;62687;55.738;37.516;2023-07-29T02:51:53;7.35;;;2.40;;
74291;SDS011;62687;55.738;37.516;2023-07-29T02:54:37;7.90;;;2.30;;
74291;SDS011;62687;55.738;37.516;2023-07-29T02:57:21;4.28;;;2.17;;
74291;SDS011;62687;55.738;37.516;2023-07-29T03:00:05;4.65;;;2.35;;
74291;SDS011;62687;55.738;37.516;2023-07-29T03:02:51;8.23;;;2.40;;
74291;SDS011;62687;55.738;37.516;2023-07-29T03:05:35;3.45;;;2.00;;
74291;SDS011;62687;55.738;37.516;2023-07-29T03:08:18;3.88;;;2.35;;
74291;SDS011;62687;55.738;37.516;2023-07-29T03:11:06;4.53;;;2.00;;
74291;SDS011;62687;55.738;37.516;2023-07-29T03:13:50;3.63;;;2.30;;
74291;SDS011;62687;55.738;37.516;2023-07-29T03:16:34;5.57;;;2.65;;
74291;SDS011;62687;55.738;37.516;2023-07-29T03:19:18;5.05;;;2.10;;
74291;SDS011;62687;55.738;37.516;2023-07-29T03:22:02;9.32;;;2.90;;
74291;SDS011;62687;55.738;37.516;2023-07-29T03:24:46;7.00;;;3.38;;
74291;SDS011;62687;55.738;37.516;2023-07-29T03:27:30;9.20;;;3.25;;
74291;SDS011;62687;55.738;37.516;2023-07-29T03:30:14;6.93;;;3.05;;
74291;SDS011;62687;55.738;37.516;2023-07-29T03:32:58;9.95;;;2.80;;
74291;SDS011;62687;55.738;37.516;2023-07-29T03:35:42;4.93;;;2.70;;
74291;SDS011;62687;55.738;37.516;2023-07-29T03:38:28;7.70;;;2.53;;
74291;SDS011;62687;55.738;37.516;2023-07-29T03:41:12;6.68;;;2.45;;
74291;SDS011;62687;55.738;37.516;2023-07-29T03:43:56;4.72;;;2.58;;
74291;SDS011;62687;55.738;37.516;2023-07-29T03:46:40;5.38;;;2.35;;
74291;SDS011;62687;55.738;37.516;2023-07-29T03:49:24;7.15;;;2.53;;
74291;SDS011;62687;55.738;37.516;2023-07-29T03:52:08;6.97;;;2.50;;
74291;SDS011;62687;55.738;37.516;2023-07-29T03:54:51;5.88;;;2.70;;
74291;SDS011;62687;55.738;37.516;2023-07-29T03:57:35;5.50;;;2.58;;
74291;SDS011;62687;55.738;37.516;2023-07-29T04:00:19;9.35;;;2.90;;
74291;SDS011;62687;55.738;37.516;2023-07-29T04:03:03;5.68;;;2.63;;
74291;SDS011;62687;55.738;37.516;2023-07-29T04:05:47;7.55;;;2.97;;
74291;SDS011;62687;55.738;37.516;2023-07-29T04:08:31;6.25;;;2.85;;
74291;SDS011;62687;55.738;37.516;2023-07-29T04:11:15;5.20;;;2.63;;
74291;SDS011;62687;55.738;37.516;2023-07-29T04:13:59;9.10;;;2.90;;
74291;SDS011;62687;55.738;37.516;2023-07-29T04:16:44;5.70;;;3.00;;
74291;SDS011;62687;55.738;37.516;2023-07-29T04:19:29;7.22;;;3.28;;
74291;SDS011;62687;55.738;37.516;2023-07-29T04:22:13;7.72;;;3.00;;
74291;SDS011;62687;55.738;37.516;2023-07-29T04:24:57;10.23;;;4.43;;
74291;SDS011;62687;55.738;37.516;2023-07-29T04:27:41;7.63;;;3.40;;
74291;SDS011;62687;55.738;37.516;2023-07-29T04:30:25;5.70;;;3.45;;
74291;SDS011;62687;55.738;37.516;2023-07-29T04:33:09;5.65;;;2.83;;
74291;SDS011;62687;55.738;37.516;2023-07-29T04:35:53;10.07;;;2.88;;
74291;SDS011;62687;55.738;37.516;2023-07-29T04:38:37;6.63;;;3.60;;
74291;SDS011;62687;55.738;37.516;2023-07-29T04:41:21;12.73;;;4.20;;
74291;SDS011;62687;55.738;37.516;2023-07-29T04:44:05;7.28;;;3.03;;
74291;SDS011;62687;55.738;37.516;2023-07-29T04:46:49;4.53;;;2.65;;
74291;SDS011;62687;55.738;37.516;2023-07-29T04:49:33;5.43;;;3.08;;
74291;SDS011;62687;55.738;37.516;2023-07-29T04:52:17;6.32;;;3.08;;
74291;SDS011;62687;55.738;37.516;2023-07-29T04:55:03;5.35;;;2.72;;
74291;SDS011;62687;55.738;37.516;2023-07-29T04:57:47;7.82;;;3.15;;
74291;SDS011;62687;55.738;37.516;2023-07-29T05:00:31;4.38;;;2.60;;
74291;SDS011;62687;55.738;37.516;2023-07-29T05:03:15;6.80;;;3.15;;
74291;SDS011;62687;55.738;37.516;2023-07-29T05:05:59;7.72;;;2.63;;
74291;SDS011;62687;55.738;37.516;2023-07-29T05:08:43;8.68;;;3.00;;
74291;SDS011;62687;55.738;37.516;2023-07-29T05:11:27;6.78;;;2.70;;
74291;SDS011;62687;55.738;37.516;2023-07-29T05:14:12;4.13;;;2.42;;
74291;SDS011;62687;55.738;37.516;2023-07-29T05:19:40;3.63;;;2.35;;
74291;SDS011;62687;55.738;37.516;2023-07-29T05:22:24;5.85;;;2.67;;
74291;SDS011;62687;55.738;37.516;2023-07-29T05:25:08;5.68;;;2.70;;
74291;SDS011;62687;55.738;37.516;2023-07-29T05:27:53;6.38;;;2.65;;
74291;SDS011;62687;55.738;37.516;2023-07-29T05:30:37;6.65;;;2.35;;
74291;SDS011;62687;55.738;37.516;2023-07-29T05:33:21;5.97;;;2.20;;
74291;SDS011;62687;55.738;37.516;2023-07-29T05:36:05;6.05;;;2.30;;
74291;SDS011;62687;55.738;37.516;2023-07-29T05:38:49;5.15;;;2.20;;
74291;SDS011;62687;55.738;37.516;2023-07-29T05:41:33;6.72;;;2.22;;
74291;SDS011;62687;55.738;37.516;2023-07-29T05:44:17;5.03;;;2.30;;
74291;SDS011;62687;55.738;37.516;2023-07-29T05:47:01;4.25;;;2.30;;
74291;SDS011;62687;55.738;37.516;2023-07-29T05:49:45;4.43;;;2.00;;
74291;SDS011;62687;55.738;37.516;2023-07-29T05:52:29;4.47;;;2.10;;
74291;SDS011;62687;55.738;37.516;2023-07-29T05:55:12;4.55;;;2.00;;
74291;SDS011;62687;55.738;37.516;2023-07-29T05:57:57;3.75;;;2.38;;
74291;SDS011;62687;55.738;37.516;2023-07-29T06:00:41;3.97;;;1.80;;
74291;SDS011;62687;55.738;37.516;2023-07-29T06:03:26;3.45;;;2.22;;
74291;SDS011;62687;55.738;37.516;2023-07-29T06:06:09;2.88;;;1.80;;
74291;SDS011;62687;55.738;37.516;2023-07-29T06:08:53;3.42;;;2.00;;
74291;SDS011;62687;55.738;37.516;2023-07-29T06:11:37;5.00;;;1.95;;
74291;SDS011;62687;55.738;37.516;2023-07-29T06:14:21;6.47;;;2.22;;
74291;SDS011;62687;55.738;37.516;2023-07-29T06:17:05;5.93;;;2.30;;
74291;SDS011;62687;55.738;37.516;2023-07-29T06:19:50;3.58;;;1.92;;
74291;SDS011;62687;55.738;37.516;2023-07-29T06:22:34;5.90;;;2.35;;
74291;SDS011;62687;55.738;37.516;2023-07-29T06:25:18;4.28;;;2.03;;
74291;SDS011;62687;55.738;37.516;2023-07-29T06:28:02;4.45;;;2.00;;
74291;SDS011;62687;55.738;37.516;2023-07-29T06:30:46;6.57;;;2.22;;
74291;SDS011;62687;55.738;37.516;2023-07-29T06:33:30;6.82;;;2.33;;
74291;SDS011;62687;55.738;37.516;2023-07-29T06:36:14;4.78;;;2.10;;
74291;SDS011;62687;55.738;37.516;2023-07-29T06:38:58;4.60;;;1.85;;
74291;SDS011;62687;55.738;37.516;2023-07-29T06:41:42;3.95;;;1.83;;
74291;SDS011;62687;55.738;37.516;2023-07-29T06:44:26;5.18;;;2.38;;
74291;SDS011;62687;55.738;37.516;2023-07-29T06:47:10;4.80;;;2.25;;
74291;SDS011;62687;55.738;37.516;2023-07-29T06:49:54;3.85;;;1.80;;
74291;SDS011;62687;55.738;37.516;2023-07-29T06:52:38;5.80;;;2.03;;
74291;SDS011;62687;55.738;37.516;2023-07-29T06:55:23;4.90;;;2.00;;
74291;SDS011;62687;55.738;37.516;2023-07-29T06:58:07;9.35;;;2.80;;
74291;SDS011;62687;55.738;37.516;2023-07-29T07:00:51;25.63;;;4.40;;
74291;SDS011;62687;55.738;37.516;2023-07-29T07:03:35;10.70;;;2.50;;
74291;SDS011;62687;55.738;37.516;2023-07-29T07:06:20;4.10;;;2.30;;
74291;SDS011;62687;55.738;37.516;2023-07-29T07:09:04;6.15;;;2.42;;
74291;SDS011;62687;55.738;37.516;2023-07-29T07:11:48;8.52;;;2.72;;
74291;SDS011;62687;55.738;37.516;2023-07-29T07:14:32;6.63;;;2.35;;
74291;SDS011;62687;55.738;37.516;2023-07-29T07:17:16;5.53;;;2.20;;
74291;SDS011;62687;55.738;37.516;2023-07-29T07:20:00;5.85;;;2.22;;
74291;SDS011;62687;55.738;37.516;2023-07-29T07:22:44;6.50;;;2.67;;
74291;SDS011;62687;55.738;37.516;2023-07-29T07:25:28;6.80;;;2.75;;
74291;SDS011;62687;55.738;37.516;2023-07-29T07:28:12;4.85;;;2.10;;
74291;SDS011;62687;55.738;37.516;2023-07-29T07:30:56;3.58;;;2.33;;
74291;SDS011;62687;55.738;37.516;2023-07-29T07:33:40;10.63;;;3.00;;
74291;SDS011;62687;55.738;37.516;2023-07-29T07:36:24;6.25;;;2.97;;
74291;SDS011;62687;55.738;37.516;2023-07-29T07:39:08;9.63;;;3.33;;
74291;SDS011;62687;55.738;37.516;2023-07-29T07:41:51;8.88;;;3.50;;
74291;SDS011;62687;55.738;37.516;2023-07-29T07:44:36;9.55;;;2.65;;
74291;SDS011;62687;55.738;37.516;2023-07-29T07:47:20;7.78;;;3.05;;
74291;SDS011;62687;55.738;37.516;2023-07-29T07:50:04;14.38;;;3.35;;
74291;SDS011;62687;55.738;37.516;2023-07-29T07:52:48;19.02;;;3.75;;
74291;SDS011;62687;55.738;37.516;2023-07-29T07:55:31;29.48;;;4.70;;
74291;SDS011;62687;55.738;37.516;2023-07-29T07:58:16;7.50;;;2.95;;
74291;SDS011;62687;55.738;37.516;2023-07-29T08:01:06;7.80;;;2.90;;
74291;SDS011;62687;55.738;37.516;2023-07-29T08:03:51;8.55;;;3.00;;
74291;SDS011;62687;55.738;37.516;2023-07-29T08:06:35;8.68;;;3.00;;
74291;SDS011;62687;55.738;37.516;2023-07-29T08:09:19;7.45;;;2.30;;
74291;SDS011;62687;55.738;37.516;2023-07-29T08:12:03;4.85;;;2.40;;
74291;SDS011;62687;55.738;37.516;2023-07-29T08:14:47;5.30;;;2.67;;
74291;SDS011;62687;55.738;37.516;2023-07-29T08:17:31;5.57;;;2.88;;
74291;SDS011;62687;55.738;37.516;2023-07-29T08:20:15;6.80;;;3.05;;
74291;SDS011;62687;55.738;37.516;2023-07-29T08:22:59;7.90;;;3.95;;
74291;SDS011;62687;55.738;37.516;2023-07-29T08:25:43;4.60;;;2.53;;
74291;SDS011;62687;55.738;37.516;2023-07-29T08:28:28;28.48;;;5.05;;
74291;SDS011;62687;55.738;37.516;2023-07-29T08:33:56;13.13;;;3.35;;
74291;SDS011;62687;55.738;37.516;2023-07-29T08:36:40;8.52;;;4.22;;
74291;SDS011;62687;55.738;37.516;2023-07-29T08:39:24;12.25;;;4.72;;
74291;SDS011;62687;55.738;37.516;2023-07-29T08:42:08;25.52;;;6.63;;
74291;SDS011;62687;55.738;37.516;2023-07-29T08:44:55;7.40;;;3.28;;
74291;SDS011;62687;55.738;37.516;2023-07-29T08:47:40;20.30;;;5.13;;
74291;SDS011;62687;55.738;37.516;2023-07-29T08:50:24;10.25;;;3.33;;
74291;SDS011;62687;55.738;37.516;2023-07-29T08:53:08;36.58;;;7.28;;
74291;SDS011;62687;55.738;37.516;2023-07-29T08:55:52;25.27;;;7.50;;
74291;SDS011;62687;55.738;37.516;2023-07-29T08:58:37;97.53;;;14.50;;
74291;SDS011;62687;55.738;37.516;2023-07-29T09:01:21;26.75;;;9.77;;
74291;SDS011;62687;55.738;37.516;2023-07-29T09:04:05;12.90;;;6.38;;
74291;SDS011;62687;55.738;37.516;2023-07-29T09:06:50;14.48;;;8.30;;
74291;SDS011;62687;55.738;37.516;2023-07-29T09:09:34;44.25;;;11.60;;
74291;SDS011;62687;55.738;37.516;2023-07-29T09:12:18;25.08;;;5.28;;
74291;SDS011;62687;55.738;37.516;2023-07-29T09:15:02;17.10;;;8.88;;
74291;SDS011;62687;55.738;37.516;2023-07-29T09:17:46;32.90;;;6.68;;
74291;SDS011;62687;55.738;37.516;2023-07-29T09:20:30;38.30;;;12.35;;
74291;SDS011;62687;55.738;37.516;2023-07-29T09:23:17;19.55;;;6.45;;
74291;SDS011;62687;55.738;37.516;2023-07-29T09:26:01;34.75;;;5.88;;
74291;SDS011;62687;55.738;37.516;2023-07-29T09:28:50;7.72;;;3.95;;
74291;SDS011;62687;55.738;37.516;2023-07-29T09:31:34;12.23;;;4.32;;
74291;SDS011;62687;55.738;37.516;2023-07-29T09:34:18;12.50;;;5.05;;
74291;SDS011;62687;55.738;37.516;2023-07-29T09:37:02;7.45;;;4.07;;
74291;SDS011;62687;55.738;37.516;2023-07-29T09:39:47;7.75;;;3.92;;
74291;SDS011;62687;55.738;37.516;2023-07-29T09:42:31;9.13;;;3.92;;
74291;SDS011;62687;55.738;37.516;2023-07-29T09:45:22;10.95;;;4.50;;
74291;SDS011;62687;55.738;37.516;2023-07-29T09:48:06;9.18;;;4.78;;
74291;SDS011;62687;55.738;37.516;2023-07-29T09:50:53;9.85;;;4.45;;
74291;SDS011;62687;55.738;37.516;2023-07-29T09:53:44;9.52;;;4.38;;
74291;SDS011;62687;55.738;37.516;2023-07-29T09:56:28;9.55;;;4.10;;
74291;SDS011;62687;55.738;37.516;2023-07-29T09:59:12;8.32;;;4.38;;
74291;SDS011;62687;55.738;37.516;2023-07-29T10:01:57;32.88;;;7.13;;
74291;SDS011;62687;55.738;37.516;2023-07-29T10:04:41;12.75;;;5.60;;
74291;SDS011;62687;55.738;37.516;2023-07-29T10:07:25;13.65;;;5.57;;
74291;SDS011;62687;55.738;37.516;2023-07-29T10:10:10;13.85;;;6.50;;
74291;SDS011;62687;55.738;37.516;2023-07-29T10:12:54;11.70;;;5.25;;
74291;SDS011;62687;55.738;37.516;2023-07-29T10:15:39;10.50;;;4.45;;
74291;SDS011;62687;55.738;37.516;2023-07-29T10:18:24;7.50;;;4.57;;
74291;SDS011;62687;55.738;37.516;2023-07-29T10:21:07;9.85;;;4.60;;
74291;SDS011;62687;55.738;37.516;2023-07-29T10:23:53;8.50;;;4.28;;
74291;SDS011;62687;55.738;37.516;2023-07-29T10:26:37;6.38;;;4.28;;
74291;SDS011;62687;55.738;37.516;2023-07-29T10:29:21;11.80;;;4.63;;
74291;SDS011;62687;55.738;37.516;2023-07-29T10:32:07;10.13;;;4.80;;
74291;SDS011;62687;55.738;37.516;2023-07-29T10:34:51;5.88;;;4.03;;
74291;SDS011;62687;55.738;37.516;2023-07-29T10:37:35;5.93;;;3.83;;
74291;SDS011;62687;55.738;37.516;2023-07-29T10:40:20;8.85;;;4.80;;
74291;SDS011;62687;55.738;37.516;2023-07-29T10:43:11;9.35;;;5.20;;
74291;SDS011;62687;55.738;37.516;2023-07-29T10:48:39;9.63;;;5.57;;
74291;SDS011;62687;55.738;37.516;2023-07-29T10:51:24;8.32;;;3.63;;
74291;SDS011;62687;55.738;37.516;2023-07-29T10:54:17;9.30;;;4.47;;
74291;SDS011;62687;55.738;37.516;2023-07-29T10:57:01;10.73;;;5.60;;
74291;SDS011;62687;55.738;37.516;2023-07-29T10:59:55;5.65;;;3.28;;
74291;SDS011;62687;55.738;37.516;2023-07-29T11:02:39;6.22;;;3.50;;
74291;SDS011;62687;55.738;37.516;2023-07-29T11:05:23;5.82;;;3.15;;
74291;SDS011;62687;55.738;37.516;2023-07-29T11:08:17;9.57;;;3.47;;
74291;SDS011;62687;55.738;37.516;2023-07-29T11:13:45;8.55;;;4.70;;
74291;SDS011;62687;55.738;37.516;2023-07-29T11:16:29;10.77;;;4.07;;
74291;SDS011;62687;55.738;37.516;2023-07-29T11:19:14;11.27;;;4.13;;
74291;SDS011;62687;55.738;37.516;2023-07-29T11:22:01;11.02;;;4.10;;
74291;SDS011;62687;55.738;37.516;2023-07-29T11:24:46;29.17;;;6.43;;
74291;SDS011;62687;55.738;37.516;2023-07-29T11:27:30;7.40;;;3.70;;
74291;SDS011;62687;55.738;37.516;2023-07-29T11:30:14;8.00;;;3.67;;
74291;SDS011;62687;55.738;37.516;2023-07-29T11:32:59;9.25;;;4.18;;
74291;SDS011;62687;55.738;37.516;2023-07-29T11:35:43;6.65;;;3.55;;
74291;SDS011;62687;55.738;37.516;2023-07-29T11:38:27;7.50;;;3.95;;
74291;SDS011;62687;55.738;37.516;2023-07-29T11:41:11;9.73;;;3.58;;
74291;SDS011;62687;55.738;37.516;2023-07-29T11:43:55;9.75;;;3.88;;
74291;SDS011;62687;55.738;37.516;2023-07-29T11:46:39;12.20;;;4.85;;
74291;SDS011;62687;55.738;37.516;2023-07-29T11:49:23;8.55;;;3.97;;
74291;SDS011;62687;55.738;37.516;2023-07-29T11:52:08;6.57;;;3.78;;
74291;SDS011;62687;55.738;37.516;2023-07-29T11:57:37;7.20;;;3.28;;
74291;SDS011;62687;55.738;37.516;2023-07-29T12:00:21;7.35;;;3.00;;
74291;SDS011;62687;55.738;37.516;2023-07-29T12:03:05;8.93;;;3.00;;
74291;SDS011;62687;55.738;37.516;2023-07-29T12:05:49;6.75;;;3.75;;
74291;SDS011;62687;55.738;37.516;2023-07-29T12:08:33;7.13;;;3.50;;
74291;SDS011;62687;55.738;37.516;2023-07-29T12:11:17;8.07;;;3.30;;
74291;SDS011;62687;55.738;37.516;2023-07-29T12:14:02;11.55;;;3.25;;
74291;SDS011;62687;55.738;37.516;2023-07-29T12:16:47;7.18;;;3.63;;
74291;SDS011;62687;55.738;37.516;2023-07-29T12:19:32;9.63;;;2.67;;
74291;SDS011;62687;55.738;37.516;2023-07-29T12:22:18;9.45;;;3.15;;
74291;SDS011;62687;55.738;37.516;2023-07-29T12:25:02;8.68;;;4.32;;
74291;SDS011;62687;55.738;37.516;2023-07-29T12:27:47;9.52;;;4.63;;
74291;SDS011;62687;55.738;37.516;2023-07-29T12:30:31;9.27;;;4.32;;
74291;SDS011;62687;55.738;37.516;2023-07-29T12:33:35;12.45;;;3.78;;
74291;SDS011;62687;55.738;37.516;2023-07-29T12:36:19;9.02;;;3.40;;
74291;SDS011;62687;55.738;37.516;2023-07-29T12:39:03;6.97;;;3.53;;
74291;SDS011;62687;55.738;37.516;2023-07-29T12:41:48;8.63;;;4.05;;
74291;SDS011;62687;55.738;37.516;2023-07-29T12:44:32;10.50;;;4.38;;
74291;SDS011;62687;55.738;37.516;2023-07-29T12:50:01;9.30;;;2.80;;
74291;SDS011;62687;55.738;37.516;2023-07-29T12:52:45;12.73;;;3.78;;
74291;SDS011;62687;55.738;37.516;2023-07-29T12:55:29;7.93;;;3.97;;
74291;SDS011;62687;55.738;37.516;2023-07-29T12:58:13;6.43;;;2.75;;
74291;SDS011;62687;55.738;37.516;2023-07-29T13:00:57;8.85;;;2.17;;
74291;SDS011;62687;55.738;37.516;2023-07-29T13:03:41;6.28;;;2.97;;
74291;SDS011;62687;55.738;37.516;2023-07-29T13:06:25;5.85;;;2.65;;
74291;SDS011;62687;55.738;37.516;2023-07-29T13:09:08;9.25;;;3.90;;
74291;SDS011;62687;55.738;37.516;2023-07-29T13:11:52;7.72;;;3.15;;
74291;SDS011;62687;55.738;37.516;2023-07-29T13:14:36;7.25;;;2.10;;
74291;SDS011;62687;55.738;37.516;2023-07-29T13:17:21;6.65;;;2.63;;
74291;SDS011;62687;55.738;37.516;2023-07-29T13:20:05;9.90;;;2.10;;
74291;SDS011;62687;55.738;37.516;2023-07-29T13:22:52;6.15;;;2.28;;
74291;SDS011;62687;55.738;37.516;2023-07-29T13:25:36;7.40;;;2.33;;
74291;SDS011;62687;55.738;37.516;2023-07-29T13:28:20;4.32;;;1.90;;
74291;SDS011;62687;55.738;37.516;2023-07-29T13:31:04;7.95;;;3.08;;
74291;SDS011;62687;55.738;37.516;2023-07-29T13:33:48;10.68;;;2.40;;
74291;SDS011;62687;55.738;37.516;2023-07-29T13:36:32;5.18;;;2.40;;
74291;SDS011;62687;55.738;37.516;2023-07-29T13:39:16;6.47;;;3.53;;
74291;SDS011;62687;55.738;37.516;2023-07-29T13:42:00;6.63;;;2.17;;
74291;SDS011;62687;55.738;37.516;2023-07-29T13:44:44;12.43;;;5.90;;
74291;SDS011;62687;55.738;37.516;2023-07-29T13:47:28;6.50;;;2.85;;
74291;SDS011;62687;55.738;37.516;2023-07-29T13:50:12;5.30;;;3.22;;
74291;SDS011;62687;55.738;37.516;2023-07-29T13:52:56;9.80;;;3.13;;
74291;SDS011;62687;55.738;37.516;2023-07-29T13:55:40;7.45;;;3.30;;
74291;SDS011;62687;55.738;37.516;2023-07-29T13:58:24;7.10;;;3.80;;
74291;SDS011;62687;55.738;37.516;2023-07-29T14:01:10;14.18;;;4.55;;
74291;SDS011;62687;55.738;37.516;2023-07-29T14:03:54;9.35;;;3.80;;
74291;SDS011;62687;55.738;37.516;2023-07-29T14:06:37;13.23;;;5.90;;
74291;SDS011;62687;55.738;37.516;2023-07-29T14:09:22;11.65;;;6.20;;
74291;SDS011;62687;55.738;37.516;2023-07-29T14:12:06;8.52;;;3.80;;
74291;SDS011;62687;55.738;37.516;2023-07-29T14:14:50;9.57;;;3.90;;
74291;SDS011;62687;55.738;37.516;2023-07-29T14:17:33;9.50;;;3.60;;
74291;SDS011;62687;55.738;37.516;2023-07-29T14:20:17;8.23;;;3.03;;
74291;SDS011;62687;55.738;37.516;2023-07-29T14:23:02;5.75;;;2.20;;
74291;SDS011;62687;55.738;37.516;2023-07-29T14:25:46;11.55;;;3.50;;
74291;SDS011;62687;55.738;37.516;2023-07-29T14:28:30;7.03;;;3.25;;
74291;SDS011;62687;55.738;37.516;2023-07-29T14:31:14;6.10;;;2.25;;
74291;SDS011;62687;55.738;37.516;2023-07-29T14:34:00;4.88;;;2.00;;
74291;SDS011;62687;55.738;37.516;2023-07-29T14:36:45;6.75;;;2.42;;
74291;SDS011;62687;55.738;37.516;2023-07-29T14:39:29;9.10;;;2.95;;
74291;SDS011;62687;55.738;37.516;2023-07-29T14:42:13;7.07;;;1.70;;
74291;SDS011;62687;55.738;37.516;2023-07-29T14:44:58;3.28;;;2.10;;
74291;SDS011;62687;55.738;37.516;2023-07-29T14:47:42;5.30;;;2.40;;
74291;SDS011;62687;55.738;37.516;2023-07-29T14:50:26;7.47;;;3.15;;
74291;SDS011;62687;55.738;37.516;2023-07-29T14:53:10;6.15;;;2.40;;
74291;SDS011;62687;55.738;37.516;2023-07-29T14:55:54;3.15;;;1.83;;
74291;SDS011;62687;55.738;37.516;2023-07-29T14:58:38;7.90;;;2.10;;
74291;SDS011;62687;55.738;37.516;2023-07-29T15:01:22;5.03;;;2.33;;
74291;SDS011;62687;55.738;37.516;2023-07-29T15:04:06;6.50;;;2.30;;
74291;SDS011;62687;55.738;37.516;2023-07-29T15:06:50;5.85;;;2.00;;
74291;SDS011;62687;55.738;37.516;2023-07-29T15:09:34;6.63;;;2.50;;
74291;SDS011;62687;55.738;37.516;2023-07-29T15:12:18;5.82;;;2.80;;
74291;SDS011;62687;55.738;37.516;2023-07-29T15:15:02;8.45;;;3.40;;
74291;SDS011;62687;55.738;37.516;2023-07-29T15:17:46;5.65;;;2.30;;
74291;SDS011;62687;55.738;37.516;2023-07-29T15:20:30;9.88;;;2.70;;
74291;SDS011;62687;55.738;37.516;2023-07-29T15:23:14;5.55;;;2.35;;
74291;SDS011;62687;55.738;37.516;2023-07-29T15:25:58;8.45;;;3.42;;
74291;SDS011;62687;55.738;37.516;2023-07-29T15:28:42;5.95;;;2.30;;
74291;SDS011;62687;55.738;37.516;2023-07-29T15:31:26;7.43;;;2.40;;
74291;SDS011;62687;55.738;37.516;2023-07-29T15:34:10;7.95;;;3.38;;
74291;SDS011;62687;55.738;37.516;2023-07-29T15:36:54;8.57;;;2.60;;
74291;SDS011;62687;55.738;37.516;2023-07-29T15:39:38;8.43;;;2.65;;
74291;SDS011;62687;55.738;37.516;2023-07-29T15:42:22;9.88;;;2.63;;
74291;SDS011;62687;55.738;37.516;2023-07-29T15:45:06;9.45;;;2.72;;
74291;SDS011;62687;55.738;37.516;2023-07-29T15:47:50;9.95;;;2.70;;
74291;SDS011;62687;55.738;37.516;2023-07-29T15:50:34;7.07;;;2.72;;
74291;SDS011;62687;55.738;37.516;2023-07-29T15:53:18;6.97;;;2.53;;
74291;SDS011;62687;55.738;37.516;2023-07-29T15:56:02;9.70;;;2.75;;
74291;SDS011;62687;55.738;37.516;2023-07-29T15:58:46;12.10;;;2.75;;
74291;SDS011;62687;55.738;37.516;2023-07-29T16:01:30;6.72;;;2.60;;
74291;SDS011;62687;55.738;37.516;2023-07-29T16:04:14;6.35;;;3.03;;
74291;SDS011;62687;55.738;37.516;2023-07-29T16:06:58;5.72;;;2.90;;
74291;SDS011;62687;55.738;37.516;2023-07-29T16:09:42;10.77;;;4.13;;
74291;SDS011;62687;55.738;37.516;2023-07-29T16:12:26;11.50;;;5.05;;
74291;SDS011;62687;55.738;37.516;2023-07-29T16:15:10;13.82;;;5.07;;
74291;SDS011;62687;55.738;37.516;2023-07-29T16:17:54;11.57;;;4.70;;
74291;SDS011;62687;55.738;37.516;2023-07-29T16:20:38;9.40;;;3.50;;
74291;SDS011;62687;55.738;37.516;2023-07-29T16:23:22;7.85;;;3.97;;
74291;SDS011;62687;55.738;37.516;2023-07-29T16:26:06;7.97;;;3.50;;
74291;SDS011;62687;55.738;37.516;2023-07-29T16:28:50;11.35;;;5.38;;
74291;SDS011;62687;55.738;37.516;2023-07-29T16:31:35;11.45;;;3.63;;
74291;SDS011;62687;55.738;37.516;2023-07-29T16:34:19;9.95;;;3.33;;
74291;SDS011;62687;55.738;37.516;2023-07-29T16:37:04;9.88;;;4.45;;
74291;SDS011;62687;55.738;37.516;2023-07-29T16:39:48;11.55;;;5.22;;